Time;durP1;ratioP1;P1;durP2;ratioP2;P2;SDS_P1;SDS_P2;PMS_P1;PMS_P2;Temp;Humidity;BMP_temperature;BMP_pressure;BME280_temperature;BME280_humidity;BME280_pressure;Samples;Min_cycle;Max_cycle;Signal;HPM_P1;HPM_P2
2022/12/08 00:01:26;;;;;;;40.70;23.37;;;3.50;99.90;;;;;;5051614;28;20691;-56
2022/12/08 00:03:53;;;;;;;43.80;23.63;;;3.50;99.90;;;;;;5051360;28;20631;-56
2022/12/08 00:09:24;;;;;;;39.07;23.27;;;3.60;99.90;;;;;;5051535;28;20304;-54
2022/12/08 00:11:56;;;;;;;44.83;25.00;;;3.50;99.90;;;;;;5055571;28;20205;-56
2022/12/08 00:14:25;;;;;;;43.73;25.23;;;3.50;99.90;;;;;;5055043;28;20198;-57
2022/12/08 00:16:52;;;;;;;44.10;25.47;;;3.60;99.90;;;;;;5055221;28;20226;-56
2022/12/08 00:19:19;;;;;;;42.17;25.20;;;3.60;99.90;;;;;;5055463;28;20205;-57
2022/12/08 00:21:45;;;;;;;43.57;23.97;;;3.60;99.90;;;;;;5055623;28;20264;-54
2022/12/08 00:24:13;;;;;;;44.70;26.10;;;3.60;99.90;;;;;;5055469;28;20453;-55
2022/12/08 00:26:40;;;;;;;46.40;26.77;;;3.60;99.90;;;;;;5055162;28;20224;-56
2022/12/08 00:29:07;;;;;;;43.10;24.00;;;3.60;99.90;;;;;;5055186;28;20223;-56
2022/12/08 00:31:34;;;;;;;40.63;25.10;;;3.50;99.90;;;;;;5055099;28;20461;-56
2022/12/08 00:34:01;;;;;;;42.27;24.80;;;3.50;99.90;;;;;;5055225;28;20212;-57
2022/12/08 00:36:27;;;;;;;43.67;26.47;;;3.50;99.90;;;;;;5054783;28;20282;-57
2022/12/08 00:38:54;;;;;;;50.53;27.30;;;3.60;99.90;;;;;;5055417;28;20242;-57
2022/12/08 00:44:05;;;;;;;44.83;25.17;;;3.50;99.90;;;;;;5046463;28;20714;-57
2022/12/08 00:46:32;;;;;;;40.27;24.73;;;3.60;99.90;;;;;;5054376;28;20239;-57
2022/12/08 00:48:58;;;;;;;39.80;24.87;;;3.60;99.90;;;;;;5055130;28;20233;-57
2022/12/08 00:51:25;;;;;;;38.57;24.70;;;3.60;99.90;;;;;;5054876;28;20208;-53
2022/12/08 00:53:52;;;;;;;43.80;26.37;;;3.60;99.90;;;;;;5054901;28;20205;-56
2022/12/08 00:56:18;;;;;;;41.73;26.23;;;3.60;99.90;;;;;;5054645;28;20226;-56
2022/12/08 00:58:46;;;;;;;40.50;24.97;;;3.60;99.90;;;;;;5054955;28;20248;-54
2022/12/08 01:01:14;;;;;;;40.30;24.10;;;3.60;99.90;;;;;;5054735;28;20614;-57
2022/12/08 01:03:42;;;;;;;39.73;25.70;;;3.60;99.90;;;;;;5054850;28;20223;-57
2022/12/08 01:06:09;;;;;;;38.33;24.00;;;3.60;99.90;;;;;;5054304;28;20234;-54
2022/12/08 01:08:37;;;;;;;43.70;24.73;;;3.60;99.90;;;;;;5054499;28;20213;-55
2022/12/08 01:11:04;;;;;;;37.10;23.80;;;3.60;99.90;;;;;;5054393;28;20256;-56
2022/12/08 01:13:31;;;;;;;39.57;22.37;;;3.50;99.90;;;;;;5054160;28;20687;-57
2022/12/08 01:15:59;;;;;;;34.87;22.33;;;3.50;99.90;;;;;;5053904;28;20783;-56
2022/12/08 01:18:27;;;;;;;36.40;21.87;;;3.50;99.90;;;;;;5054456;28;20212;-57
2022/12/08 01:20:54;;;;;;;33.70;21.97;;;3.50;99.90;;;;;;5053674;28;20213;-55
2022/12/08 01:23:21;;;;;;;32.17;20.30;;;3.50;99.90;;;;;;5054112;28;20632;-56
2022/12/08 01:25:48;;;;;;;38.30;23.10;;;3.50;99.90;;;;;;5053986;28;20231;-57
2022/12/08 01:28:14;;;;;;;41.07;23.07;;;3.40;99.90;;;;;;5053949;28;20221;-57
2022/12/08 01:30:41;;;;;;;38.57;23.37;;;3.40;99.90;;;;;;5054137;28;20229;-57
2022/12/08 01:33:09;;;;;;;37.97;23.13;;;3.40;99.90;;;;;;5054077;28;20209;-57
2022/12/08 01:35:36;;;;;;;38.07;20.57;;;3.40;99.90;;;;;;5053870;28;20230;-57
2022/12/08 01:38:02;;;;;;;41.43;23.47;;;3.40;99.90;;;;;;5053638;28;20460;-54
2022/12/08 01:40:29;;;;;;;37.40;24.10;;;3.40;99.90;;;;;;5053716;28;20203;-57
2022/12/08 01:42:55;;;;;;;35.63;21.50;;;3.40;99.90;;;;;;5053936;28;20795;-57
2022/12/08 01:45:25;;;;;;;36.33;22.07;;;3.40;99.90;;;;;;5053589;28;20662;-54
2022/12/08 01:47:56;;;;;;;32.97;21.67;;;3.40;99.90;;;;;;5053526;28;20261;-57
2022/12/08 01:50:25;;;;;;;38.03;22.93;;;3.40;99.90;;;;;;5053717;28;20226;-57
2022/12/08 01:52:55;;;;;;;35.67;22.77;;;3.40;99.90;;;;;;5053586;28;20219;-57
2022/12/08 01:55:25;;;;;;;36.80;22.43;;;3.30;99.90;;;;;;5053969;28;20210;-56
2022/12/08 01:57:57;;;;;;;37.77;22.20;;;3.40;99.90;;;;;;5053557;28;20211;-57
2022/12/08 02:00:24;;;;;;;40.17;23.60;;;3.40;99.90;;;;;;5053837;28;20209;-56
2022/12/08 02:02:54;;;;;;;35.50;22.23;;;3.40;99.90;;;;;;5053684;28;20502;-54
2022/12/08 02:05:25;;;;;;;39.07;23.13;;;3.40;99.90;;;;;;5053443;28;20210;-56
2022/12/08 02:07:52;;;;;;;36.50;22.60;;;3.40;99.90;;;;;;5053628;28;20214;-55
2022/12/08 02:10:21;;;;;;;39.53;24.40;;;3.40;99.90;;;;;;5053614;28;20236;-57
2022/12/08 02:12:50;;;;;;;41.70;23.47;;;3.40;99.90;;;;;;5053184;28;20209;-56
2022/12/08 02:15:17;;;;;;;45.87;23.00;;;3.40;99.90;;;;;;5053225;28;20738;-57
2022/12/08 02:18:00;;;;;;;39.97;22.10;;;3.40;99.90;;;;;;5044893;28;20442;-54
2022/12/08 02:20:38;;;;;;;40.73;23.07;;;3.40;99.90;;;;;;5044997;28;20198;-54
2022/12/08 02:23:13;;;;;;;41.00;22.87;;;3.40;99.90;;;;;;5046986;28;20280;-56
2022/12/08 02:25:58;;;;;;;38.97;24.60;;;3.40;99.90;;;;;;5053624;28;20229;-49
2022/12/08 02:28:48;;;;;;;42.17;22.03;;;3.40;99.90;;;;;;5053763;28;20828;-56
2022/12/08 02:31:27;;;;;;;45.03;22.63;;;3.40;99.90;;;;;;5052969;28;20814;-51
2022/12/08 02:34:14;;;;;;;38.13;21.50;;;3.40;99.90;;;;;;5051852;28;20206;-53
2022/12/08 02:36:48;;;;;;;43.93;24.83;;;3.40;99.90;;;;;;5052342;28;20230;-51
2022/12/08 02:39:27;;;;;;;45.93;24.33;;;3.40;99.90;;;;;;5052819;28;20445;-56
2022/12/08 02:42:01;;;;;;;39.33;21.57;;;3.50;99.90;;;;;;5052686;28;20983;-54
2022/12/08 02:44:31;;;;;;;41.90;24.37;;;3.40;99.90;;;;;;5052529;28;20202;-55
2022/12/08 02:47:02;;;;;;;39.70;22.70;;;3.40;99.90;;;;;;5052293;28;20727;-52
2022/12/08 02:49:32;;;;;;;42.43;23.80;;;3.50;99.90;;;;;;5052736;28;20473;-50
2022/12/08 02:52:07;;;;;;;40.23;21.47;;;3.50;99.90;;;;;;5052774;28;20219;-54
2022/12/08 02:54:36;;;;;;;38.43;22.53;;;3.50;99.90;;;;;;5052562;28;20594;-53
2022/12/08 02:57:17;;;;;;;36.70;20.67;;;3.40;99.90;;;;;;5052257;28;20477;-51
2022/12/08 03:00:01;;;;;;;33.93;19.80;;;3.40;99.90;;;;;;5052213;28;20603;-52
2022/12/08 03:02:42;;;;;;;39.57;20.80;;;3.40;99.90;;;;;;5052479;28;20215;-56
2022/12/08 03:05:22;;;;;;;39.13;21.83;;;3.40;99.90;;;;;;5052445;28;20207;-56
2022/12/08 03:07:55;;;;;;;42.53;22.50;;;3.40;99.90;;;;;;5052094;28;20236;-57
2022/12/08 03:10:29;;;;;;;35.43;20.67;;;3.40;99.90;;;;;;5052310;28;20230;-54
2022/12/08 03:13:00;;;;;;;42.67;22.03;;;3.40;99.90;;;;;;5052303;28;20557;-57
2022/12/08 03:15:28;;;;;;;40.20;20.90;;;3.50;99.90;;;;;;5051677;28;20379;-56
2022/12/08 03:17:58;;;;;;;38.43;19.10;;;3.50;99.90;;;;;;5051775;28;20202;-56
2022/12/08 03:20:29;;;;;;;35.60;19.60;;;3.50;99.90;;;;;;5051784;28;20207;-55
2022/12/08 03:22:58;;;;;;;42.83;20.53;;;3.50;99.90;;;;;;5052300;28;20266;-56
2022/12/08 03:25:31;;;;;;;36.67;20.47;;;3.50;99.90;;;;;;5052269;28;20214;-52
2022/12/08 03:27:59;;;;;;;42.67;22.20;;;3.50;99.90;;;;;;5051971;28;20217;-54
2022/12/08 03:30:28;;;;;;;43.30;20.53;;;3.50;99.90;;;;;;5051762;28;20235;-57
2022/12/08 03:33:01;;;;;;;40.03;21.43;;;3.60;99.90;;;;;;5051820;28;20275;-57
2022/12/08 03:35:32;;;;;;;39.70;21.80;;;3.60;99.90;;;;;;5051698;28;20204;-57
2022/12/08 03:38:02;;;;;;;38.07;21.50;;;3.50;99.90;;;;;;5051376;28;20639;-57
2022/12/08 03:40:29;;;;;;;36.50;19.63;;;3.40;99.90;;;;;;5051695;28;20442;-56
2022/12/08 03:42:56;;;;;;;36.83;19.13;;;3.50;99.90;;;;;;5051909;28;20251;-56
2022/12/08 03:45:22;;;;;;;32.53;18.90;;;3.50;99.90;;;;;;5051231;28;20205;-53
2022/12/08 03:47:49;;;;;;;38.63;18.97;;;3.50;99.90;;;;;;5051639;28;20939;-53
2022/12/08 03:50:16;;;;;;;40.57;21.53;;;3.50;99.90;;;;;;5052082;28;20282;-56
2022/12/08 03:52:44;;;;;;;34.90;19.77;;;3.50;99.90;;;;;;5051895;28;20584;-55
2022/12/08 03:55:10;;;;;;;43.30;19.83;;;3.50;99.90;;;;;;5051786;28;20629;-57
2022/12/08 03:57:37;;;;;;;34.10;18.20;;;3.50;99.90;;;;;;5051391;28;20457;-55
2022/12/08 04:00:05;;;;;;;33.23;18.50;;;3.50;99.90;;;;;;5051328;28;20265;-57
2022/12/08 04:02:32;;;;;;;36.03;20.03;;;3.40;99.90;;;;;;5051589;28;20723;-56
2022/12/08 04:04:58;;;;;;;34.27;18.20;;;3.50;99.90;;;;;;5051607;28;21064;-57
2022/12/08 04:07:25;;;;;;;34.63;18.23;;;3.50;99.90;;;;;;5050920;28;20536;-57
2022/12/08 04:09:53;;;;;;;30.33;17.33;;;3.50;99.90;;;;;;5051533;28;20301;-57
2022/12/08 04:12:20;;;;;;;31.33;17.33;;;3.50;99.90;;;;;;5051432;28;20195;-57
2022/12/08 04:14:46;;;;;;;32.40;17.07;;;3.50;99.90;;;;;;5051413;28;20522;-56
2022/12/08 04:17:13;;;;;;;32.27;17.57;;;3.50;99.90;;;;;;5051141;28;20226;-56
2022/12/08 04:19:40;;;;;;;24.37;12.07;;;3.50;99.90;;;;;;5051652;28;20619;-57
2022/12/08 04:22:07;;;;;;;29.00;15.83;;;3.50;99.90;;;;;;5051165;28;20540;-57
2022/12/08 04:24:34;;;;;;;31.57;16.97;;;3.50;99.90;;;;;;5051477;28;20210;-54
2022/12/08 04:27:02;;;;;;;28.83;17.87;;;3.50;99.90;;;;;;5050897;28;20233;-57
2022/12/08 04:29:29;;;;;;;35.00;17.27;;;3.50;99.90;;;;;;5051358;28;20210;-53
2022/12/08 04:31:55;;;;;;;30.07;17.93;;;3.50;99.90;;;;;;5051166;28;20211;-56
2022/12/08 04:34:22;;;;;;;33.60;16.80;;;3.50;99.90;;;;;;5051266;28;20209;-56
2022/12/08 04:36:49;;;;;;;31.27;16.00;;;3.50;99.90;;;;;;5050631;28;20318;-57
2022/12/08 04:39:16;;;;;;;25.20;13.83;;;3.50;99.90;;;;;;5051620;28;20567;-54
2022/12/08 04:41:43;;;;;;;32.07;16.17;;;3.50;99.90;;;;;;5051231;28;20263;-57
2022/12/08 04:44:11;;;;;;;29.73;15.83;;;3.50;99.90;;;;;;5051261;28;20608;-55
2022/12/08 04:46:38;;;;;;;26.70;14.63;;;3.50;99.90;;;;;;5050768;28;20238;-56
2022/12/08 04:49:04;;;;;;;27.70;15.43;;;3.50;99.90;;;;;;5051363;28;20211;-57
2022/12/08 04:51:31;;;;;;;25.30;13.13;;;3.50;99.90;;;;;;5051123;28;20280;-56
2022/12/08 04:53:58;;;;;;;23.87;13.47;;;3.50;99.90;;;;;;5051314;28;20573;-57
2022/12/08 04:56:24;;;;;;;25.60;14.07;;;3.50;99.90;;;;;;5052069;28;20221;-56
2022/12/08 04:58:51;;;;;;;25.40;14.50;;;3.50;99.90;;;;;;5054697;28;20220;-53
2022/12/08 05:01:19;;;;;;;22.00;13.23;;;3.50;99.90;;;;;;5054540;28;20201;-55
2022/12/08 05:03:46;;;;;;;24.77;14.10;;;3.50;99.90;;;;;;5054862;28;20209;-57
2022/12/08 05:06:14;;;;;;;28.27;14.83;;;3.50;99.90;;;;;;5054025;28;20243;-57
2022/12/08 05:08:40;;;;;;;23.53;12.93;;;3.50;99.90;;;;;;5054317;28;20257;-57
2022/12/08 05:11:10;;;;;;;23.17;13.17;;;3.40;99.90;;;;;;5054029;28;20226;-57
2022/12/08 05:13:36;;;;;;;25.23;14.27;;;3.50;99.90;;;;;;5054222;28;20203;-57
2022/12/08 05:16:05;;;;;;;21.60;13.17;;;3.40;99.90;;;;;;5053905;28;20226;-56
2022/12/08 05:18:34;;;;;;;22.73;12.73;;;3.40;99.90;;;;;;5054034;28;20214;-55
2022/12/08 05:21:00;;;;;;;25.77;14.20;;;3.40;99.90;;;;;;5054097;28;20673;-56
2022/12/08 05:23:27;;;;;;;24.60;13.90;;;3.40;99.90;;;;;;5054433;28;20276;-57
2022/12/08 05:25:54;;;;;;;23.27;13.40;;;3.40;99.90;;;;;;5054156;28;20225;-57
2022/12/08 05:28:21;;;;;;;25.67;14.13;;;3.40;99.90;;;;;;5054207;28;20208;-60
2022/12/08 05:30:48;;;;;;;23.77;14.17;;;3.40;99.90;;;;;;5053902;28;20226;-56
2022/12/08 05:33:15;;;;;;;24.80;14.90;;;3.30;99.90;;;;;;5054157;28;20214;-57
2022/12/08 05:35:43;;;;;;;27.27;14.40;;;3.40;99.90;;;;;;5053500;28;20590;-57
2022/12/08 05:38:10;;;;;;;25.77;14.37;;;3.40;99.90;;;;;;5053384;28;20226;-54
2022/12/08 05:40:37;;;;;;;27.40;13.90;;;3.40;99.90;;;;;;5054087;28;20202;-57
2022/12/08 05:43:04;;;;;;;29.07;14.47;;;3.40;99.90;;;;;;5053584;28;20256;-57
2022/12/08 05:45:31;;;;;;;23.63;14.03;;;3.40;99.90;;;;;;5053831;28;20203;-57
2022/12/08 05:47:58;;;;;;;25.30;13.77;;;3.40;99.90;;;;;;5053482;28;20463;-56
2022/12/08 05:50:24;;;;;;;24.50;14.17;;;3.40;99.90;;;;;;5052341;28;20276;-64
2022/12/08 05:52:52;;;;;;;20.17;11.63;;;3.30;99.90;;;;;;5052923;28;20444;-55
2022/12/08 05:55:19;;;;;;;25.60;13.93;;;3.40;99.90;;;;;;5052916;28;20198;-55
2022/12/08 05:57:46;;;;;;;26.33;14.80;;;3.40;99.90;;;;;;5053192;28;20816;-56
2022/12/08 06:00:13;;;;;;;38.73;21.60;;;3.40;99.90;;;;;;5052669;28;20447;-57
2022/12/08 06:02:41;;;;;;;20.50;12.40;;;3.40;99.90;;;;;;5053063;28;20970;-56
2022/12/08 06:05:08;;;;;;;25.67;14.60;;;3.40;99.90;;;;;;5052753;28;20437;-56
2022/12/08 06:07:35;;;;;;;25.27;14.97;;;3.40;99.90;;;;;;5052912;28;20312;-55
2022/12/08 06:10:04;;;;;;;24.27;13.57;;;3.40;99.90;;;;;;5052571;28;20499;-56
2022/12/08 06:12:30;;;;;;;27.07;15.07;;;3.50;99.90;;;;;;5053208;28;20202;-52
2022/12/08 06:14:57;;;;;;;24.70;14.20;;;3.40;99.90;;;;;;5053055;28;20452;-55
2022/12/08 06:17:23;;;;;;;27.37;15.40;;;3.40;99.90;;;;;;5052712;28;20643;-54
2022/12/08 06:19:50;;;;;;;25.00;15.83;;;3.40;99.90;;;;;;5052981;28;20212;-51
2022/12/08 06:22:17;;;;;;;26.83;16.20;;;3.50;99.90;;;;;;5052540;28;20858;-54
2022/12/08 06:24:43;;;;;;;23.70;13.80;;;3.50;99.90;;;;;;5052788;28;20206;-55
2022/12/08 06:27:11;;;;;;;25.97;14.60;;;3.50;99.90;;;;;;5052041;28;20233;-56
2022/12/08 06:29:38;;;;;;;28.40;15.47;;;3.40;99.90;;;;;;5052805;28;20275;-54
2022/12/08 06:32:05;;;;;;;26.67;14.67;;;3.40;99.90;;;;;;5052285;28;20282;-61
2022/12/08 06:34:32;;;;;;;27.80;15.80;;;3.40;99.90;;;;;;5051884;28;20202;-54
2022/12/08 06:36:58;;;;;;;24.53;14.43;;;3.40;99.90;;;;;;5031603;28;20238;-54
2022/12/08 06:39:25;;;;;;;26.20;14.53;;;3.50;99.90;;;;;;5032756;28;20207;-58
2022/12/08 06:44:39;;;;;;;24.03;13.83;;;3.50;99.90;;;;;;5051579;28;20291;-61
2022/12/08 06:47:06;;;;;;;23.97;13.70;;;3.50;99.90;;;;;;5047912;28;20226;-59
2022/12/08 06:49:32;;;;;;;25.23;13.60;;;3.50;99.90;;;;;;5051367;28;20230;-59
2022/12/08 06:51:59;;;;;;;26.37;14.70;;;3.40;99.90;;;;;;5042811;28;20267;-57
2022/12/08 06:54:26;;;;;;;25.27;15.03;;;3.40;99.90;;;;;;5051312;28;20271;-57
2022/12/08 06:56:53;;;;;;;27.67;15.13;;;3.50;99.90;;;;;;5051426;28;20664;-57
2022/12/08 06:59:19;;;;;;;25.90;14.33;;;3.50;99.90;;;;;;5051116;28;20620;-55
2022/12/08 07:01:47;;;;;;;25.20;14.53;;;3.40;99.90;;;;;;5051840;28;20672;-51
2022/12/08 07:04:14;;;;;;;27.33;15.07;;;3.40;99.90;;;;;;5051775;28;20210;-54
2022/12/08 07:06:41;;;;;;;24.40;13.90;;;3.50;99.90;;;;;;5050454;28;20877;-57
2022/12/08 07:09:08;;;;;;;23.67;12.80;;;3.40;99.90;;;;;;5051414;28;20720;-56
2022/12/08 07:11:34;;;;;;;22.70;12.93;;;3.40;99.90;;;;;;5050692;28;20227;-57
2022/12/08 07:14:01;;;;;;;26.23;13.53;;;3.40;99.90;;;;;;5051596;28;20284;-54
2022/12/08 07:16:28;;;;;;;23.70;12.10;;;3.40;99.90;;;;;;5050600;28;20234;-55
2022/12/08 07:18:56;;;;;;;22.77;12.67;;;3.40;99.90;;;;;;5050958;28;20202;-56
2022/12/08 07:21:22;;;;;;;19.97;11.90;;;3.40;99.90;;;;;;5051382;28;20198;-55
2022/12/08 07:23:49;;;;;;;21.73;11.47;;;3.30;99.90;;;;;;5050975;28;20210;-54
2022/12/08 07:26:16;;;;;;;24.63;13.30;;;3.30;99.90;;;;;;5050472;28;20896;-51
2022/12/08 07:28:43;;;;;;;26.13;13.60;;;3.30;99.90;;;;;;5050988;28;20513;-56
2022/12/08 07:31:17;;;;;;;24.23;13.00;;;3.30;99.90;;;;;;5051445;28;20835;-53
2022/12/08 07:33:44;;;;;;;24.90;12.47;;;3.30;99.90;;;;;;5050976;28;20543;-53
2022/12/08 07:36:12;;;;;;;24.17;12.87;;;3.30;99.90;;;;;;5050573;28;20539;-56
2022/12/08 07:38:40;;;;;;;29.57;13.53;;;3.30;99.90;;;;;;5050517;28;20226;-54
2022/12/08 07:41:13;;;;;;;22.77;13.20;;;3.30;99.90;;;;;;5051154;28;20207;-55
2022/12/08 07:43:40;;;;;;;25.80;14.43;;;3.30;99.90;;;;;;5050921;28;20455;-58
2022/12/08 07:46:06;;;;;;;24.60;13.60;;;3.30;99.90;;;;;;5050935;28;20475;-61
2022/12/08 07:48:33;;;;;;;22.93;12.97;;;3.30;99.90;;;;;;5071508;28;20455;-59
2022/12/08 07:51:01;;;;;;;25.17;14.27;;;3.30;99.90;;;;;;5055867;28;20844;-58
2022/12/08 07:53:29;;;;;;;24.30;13.30;;;3.30;99.90;;;;;;5050792;28;20213;-58
2022/12/08 07:55:56;;;;;;;23.27;13.27;;;3.30;99.90;;;;;;5050096;28;20529;-58
2022/12/08 07:58:23;;;;;;;22.97;13.50;;;3.30;99.90;;;;;;5050405;28;20449;-57
2022/12/08 08:00:49;;;;;;;25.53;13.37;;;3.30;99.90;;;;;;5051029;28;20514;-57
2022/12/08 08:03:16;;;;;;;24.83;13.87;;;3.30;99.90;;;;;;5050588;28;20567;-56
2022/12/08 08:05:43;;;;;;;22.17;11.43;;;3.40;99.90;;;;;;5050204;28;20473;-57
2022/12/08 08:08:10;;;;;;;22.60;12.87;;;3.30;99.90;;;;;;5049799;28;20244;-57
2022/12/08 08:10:38;;;;;;;26.27;12.23;;;3.20;99.90;;;;;;5050901;28;20450;-55
2022/12/08 08:13:04;;;;;;;24.27;12.03;;;3.20;99.90;;;;;;5050362;28;20451;-56
2022/12/08 08:15:31;;;;;;;22.03;12.03;;;3.20;99.90;;;;;;5042912;28;20464;-55
2022/12/08 08:17:58;;;;;;;19.80;12.23;;;3.20;99.90;;;;;;5041862;28;20448;-56
2022/12/08 08:20:25;;;;;;;22.17;14.10;;;3.20;99.90;;;;;;5042032;28;20444;-57
2022/12/08 08:22:52;;;;;;;22.20;13.13;;;3.30;99.90;;;;;;5031849;28;20475;-56
2022/12/08 08:25:21;;;;;;;22.17;13.10;;;3.20;99.90;;;;;;5036311;28;20519;-57
2022/12/08 08:27:49;;;;;;;23.27;14.67;;;3.20;99.90;;;;;;5040218;28;20448;-58
2022/12/08 08:30:16;;;;;;;25.00;15.47;;;3.20;99.90;;;;;;5038452;28;20491;-54
2022/12/08 08:32:43;;;;;;;25.50;15.47;;;3.20;99.90;;;;;;5042842;28;20631;-57
2022/12/08 08:35:10;;;;;;;25.37;15.37;;;3.20;99.90;;;;;;5033942;28;20213;-56
2022/12/08 08:37:37;;;;;;;20.67;12.83;;;3.10;99.90;;;;;;5034120;28;20484;-59
2022/12/08 08:40:05;;;;;;;27.70;16.20;;;3.10;99.90;;;;;;5034002;28;20997;-58
2022/12/08 08:42:31;;;;;;;25.07;14.53;;;3.10;99.90;;;;;;5041966;28;20486;-59
2022/12/08 08:44:59;;;;;;;22.70;14.77;;;3.00;99.90;;;;;;5054470;28;20452;-51
2022/12/08 08:47:26;;;;;;;21.43;13.63;;;3.00;99.90;;;;;;5053384;28;20476;-51
2022/12/08 08:49:53;;;;;;;28.37;16.10;;;3.00;99.90;;;;;;5053804;28;20927;-54
2022/12/08 08:52:19;;;;;;;24.90;15.10;;;3.00;99.90;;;;;;5055821;28;20479;-55
2022/12/08 08:54:46;;;;;;;22.50;13.33;;;3.00;99.90;;;;;;5053937;28;20452;-54
2022/12/08 08:57:13;;;;;;;23.17;14.47;;;3.00;99.90;;;;;;5053674;28;20472;-61
2022/12/08 08:59:39;;;;;;;23.57;15.40;;;3.00;99.90;;;;;;5053453;28;20950;-60
2022/12/08 09:02:15;;;;;;;26.00;15.50;;;3.00;99.90;;;;;;5060391;28;20859;-61
2022/12/08 09:04:41;;;;;;;24.70;14.20;;;3.10;99.90;;;;;;5073910;28;20450;-61
2022/12/08 09:07:08;;;;;;;21.63;13.70;;;3.00;99.90;;;;;;5063518;28;20495;-58
2022/12/08 09:09:35;;;;;;;25.13;15.03;;;3.00;99.90;;;;;;5053187;28;20455;-57
2022/12/08 09:12:01;;;;;;;22.67;13.60;;;3.00;99.90;;;;;;5053445;28;20483;-56
2022/12/08 09:14:28;;;;;;;20.47;11.80;;;3.10;99.90;;;;;;5053314;28;20452;-57
2022/12/08 09:16:55;;;;;;;19.87;12.37;;;3.10;99.90;;;;;;5053304;28;20479;-57
2022/12/08 09:19:23;;;;;;;22.97;14.13;;;3.10;99.90;;;;;;5053591;28;20444;-56
2022/12/08 09:21:50;;;;;;;22.30;12.67;;;3.00;99.90;;;;;;5053453;28;20518;-57
2022/12/08 09:24:16;;;;;;;23.30;13.67;;;3.00;99.90;;;;;;5053329;28;20451;-58
2022/12/08 09:26:44;;;;;;;19.60;12.20;;;3.00;99.90;;;;;;5052778;28;20472;-58
2022/12/08 09:29:12;;;;;;;20.53;12.37;;;3.00;99.90;;;;;;5053167;28;20510;-55
2022/12/08 09:31:39;;;;;;;20.27;11.30;;;3.00;99.90;;;;;;5052991;28;21353;-57
2022/12/08 09:34:06;;;;;;;18.83;11.13;;;3.00;99.90;;;;;;5053324;28;21027;-54
2022/12/08 09:36:33;;;;;;;22.80;15.50;;;3.00;99.90;;;;;;5053002;28;20894;-56
2022/12/08 09:39:00;;;;;;;21.27;13.17;;;3.00;99.90;;;;;;5052486;28;21209;-57
2022/12/08 09:41:32;;;;;;;26.07;12.77;;;3.00;99.90;;;;;;5053033;28;20831;-53
2022/12/08 09:44:07;;;;;;;22.20;13.33;;;3.00;99.90;;;;;;5052635;28;20531;-54
2022/12/08 09:46:34;;;;;;;21.90;13.70;;;3.10;99.90;;;;;;5053133;28;20633;-54
2022/12/08 09:49:02;;;;;;;21.07;11.93;;;3.00;99.90;;;;;;5052769;28;20446;-55
2022/12/08 09:51:32;;;;;;;22.57;13.00;;;3.00;99.90;;;;;;5053078;28;20472;-55
2022/12/08 09:54:07;;;;;;;23.97;13.90;;;3.00;99.90;;;;;;5036446;28;20209;-56
2022/12/08 09:56:36;;;;;;;21.57;13.33;;;3.00;99.90;;;;;;5043944;28;20542;-56
2022/12/08 09:59:11;;;;;;;23.60;13.57;;;2.90;99.90;;;;;;5050743;28;20432;-54
2022/12/08 10:01:40;;;;;;;25.63;14.33;;;2.90;99.90;;;;;;5051512;28;20440;-55
2022/12/08 10:04:16;;;;;;;23.33;13.90;;;2.90;99.90;;;;;;5037551;28;20484;-55
2022/12/08 10:06:49;;;;;;;27.73;14.53;;;2.90;99.90;;;;;;5051658;28;20649;-55
2022/12/08 10:09:34;;;;;;;27.23;14.07;;;3.00;99.90;;;;;;5052016;28;20928;-54
2022/12/08 10:12:09;;;;;;;25.83;14.73;;;2.90;99.90;;;;;;5043203;28;20476;-54
2022/12/08 10:14:41;;;;;;;26.13;14.90;;;3.00;99.90;;;;;;5052655;28;20448;-55
2022/12/08 10:17:16;;;;;;;29.30;15.53;;;3.00;99.90;;;;;;5051669;28;20225;-53
2022/12/08 10:19:44;;;;;;;27.97;14.17;;;3.10;99.90;;;;;;5052271;28;20455;-50
2022/12/08 10:22:19;;;;;;;25.93;14.83;;;3.10;99.90;;;;;;5052281;28;20208;-54
2022/12/08 10:24:54;;;;;;;29.10;14.63;;;3.10;99.90;;;;;;5051880;28;20470;-53
2022/12/08 10:27:20;;;;;;;29.50;15.43;;;3.10;99.90;;;;;;5051995;28;20336;-54
2022/12/08 10:29:47;;;;;;;27.00;14.60;;;3.00;99.90;;;;;;5051849;28;20872;-54
2022/12/08 10:32:18;;;;;;;29.37;15.87;;;3.00;99.90;;;;;;5051904;28;20999;-51
2022/12/08 10:35:07;;;;;;;28.67;16.37;;;3.00;99.90;;;;;;5051766;28;20902;-54
2022/12/08 10:37:33;;;;;;;29.70;16.00;;;3.10;99.90;;;;;;5051595;28;20237;-51
2022/12/08 10:40:06;;;;;;;30.53;16.43;;;3.10;99.90;;;;;;5051506;28;20209;-56
2022/12/08 10:42:37;;;;;;;28.40;15.23;;;3.10;99.90;;;;;;5051985;28;20492;-57
2022/12/08 10:45:20;;;;;;;26.20;14.73;;;3.10;99.90;;;;;;5044077;28;20452;-55
2022/12/08 10:47:56;;;;;;;24.50;14.77;;;3.20;99.90;;;;;;5041376;28;20208;-57
2022/12/08 10:50:30;;;;;;;19.67;11.60;;;3.10;99.90;;;;;;5046398;28;20448;-57
2022/12/08 10:52:58;;;;;;;25.73;14.77;;;3.00;99.90;;;;;;5051258;28;20854;-56
2022/12/08 10:55:27;;;;;;;26.13;14.20;;;3.10;99.90;;;;;;5051574;28;20456;-57
2022/12/08 10:57:53;;;;;;;28.80;15.37;;;3.10;99.90;;;;;;5050616;28;20943;-57
2022/12/08 11:00:23;;;;;;;25.30;13.93;;;3.10;99.90;;;;;;5051559;28;20456;-55
2022/12/08 11:02:53;;;;;;;29.57;16.53;;;3.10;99.90;;;;;;5051234;28;20206;-54
2022/12/08 11:05:23;;;;;;;27.53;15.63;;;3.10;99.90;;;;;;5051922;28;20531;-55
2022/12/08 11:07:52;;;;;;;25.70;13.13;;;3.10;99.90;;;;;;5051216;28;20448;-57
2022/12/08 11:10:21;;;;;;;25.67;13.77;;;3.10;99.90;;;;;;5051764;28;20209;-56
2022/12/08 11:12:50;;;;;;;25.53;14.57;;;3.10;99.90;;;;;;5052137;28;20475;-54
2022/12/08 11:15:18;;;;;;;21.40;12.43;;;3.00;99.90;;;;;;5050777;28;20297;-56
2022/12/08 11:17:48;;;;;;;22.13;14.27;;;3.00;99.90;;;;;;5051154;28;20456;-56
2022/12/08 11:20:23;;;;;;;25.57;14.03;;;3.00;99.90;;;;;;5050817;28;20513;-57
2022/12/08 11:22:54;;;;;;;25.17;14.00;;;3.10;99.90;;;;;;5051391;28;20454;-56
2022/12/08 11:25:23;;;;;;;24.50;13.93;;;3.10;99.90;;;;;;5051015;28;20475;-53
2022/12/08 11:27:53;;;;;;;20.33;12.47;;;3.10;99.90;;;;;;5050758;28;20448;-55
2022/12/08 11:30:22;;;;;;;25.27;15.07;;;3.10;99.90;;;;;;5050618;28;20510;-54
2022/12/08 11:32:51;;;;;;;25.40;15.97;;;3.10;99.90;;;;;;5051564;28;20484;-56
2022/12/08 11:35:28;;;;;;;26.00;15.23;;;3.10;99.90;;;;;;5051364;28;20447;-55
2022/12/08 11:37:58;;;;;;;31.80;17.37;;;3.10;99.90;;;;;;5050756;28;20272;-61
2022/12/08 11:40:29;;;;;;;26.30;15.53;;;3.30;99.90;;;;;;5050563;28;20211;-61
2022/12/08 11:43:06;;;;;;;30.03;16.47;;;3.70;99.90;;;;;;5050516;28;20606;-53
2022/12/08 11:45:35;;;;;;;31.00;19.07;;;3.60;99.90;;;;;;5050660;28;20209;-51
2022/12/08 11:48:10;;;;;;;33.63;19.03;;;3.60;99.90;;;;;;5050181;28;20211;-54
2022/12/08 11:50:43;;;;;;;31.43;18.47;;;3.60;99.90;;;;;;5050649;28;20202;-55
2022/12/08 11:53:18;;;;;;;33.77;20.03;;;3.50;99.90;;;;;;5050353;28;20646;-56
2022/12/08 11:55:50;;;;;;;36.80;19.60;;;3.50;99.90;;;;;;5051599;28;20321;-51
2022/12/08 11:58:21;;;;;;;38.70;20.70;;;3.50;99.90;;;;;;5049931;28;20216;-55
2022/12/08 12:00:49;;;;;;;36.83;20.40;;;3.50;99.90;;;;;;5050884;28;20461;-58
2022/12/08 12:03:24;;;;;;;32.57;19.67;;;3.50;99.90;;;;;;5050900;28;20204;-57
2022/12/08 12:06:07;;;;;;;37.00;20.03;;;3.50;99.90;;;;;;5053380;28;20591;-58
2022/12/08 12:08:46;;;;;;;38.00;20.23;;;3.50;99.90;;;;;;5054775;28;20265;-61
2022/12/08 12:14:17;;;;;;;36.60;17.70;;;3.50;99.90;;;;;;5045994;28;20214;-56
2022/12/08 12:17:00;;;;;;;32.23;18.03;;;3.50;99.90;;;;;;5054462;28;20813;-54
2022/12/08 12:19:29;;;;;;;31.87;17.97;;;3.50;99.90;;;;;;5054462;28;20211;-60
2022/12/08 12:21:57;;;;;;;32.57;17.13;;;3.50;99.90;;;;;;5054183;28;20733;-56
2022/12/08 12:24:26;;;;;;;32.37;17.80;;;3.30;99.90;;;;;;5054338;28;20271;-57
2022/12/08 12:26:57;;;;;;;31.03;17.77;;;3.40;99.90;;;;;;5054143;28;20464;-59
2022/12/08 12:29:28;;;;;;;28.27;16.60;;;3.30;99.90;;;;;;5054458;28;20459;-56
2022/12/08 12:31:58;;;;;;;29.13;17.43;;;3.30;99.90;;;;;;5054168;28;20208;-57
2022/12/08 12:34:28;;;;;;;29.07;16.47;;;3.30;99.90;;;;;;5054153;28;20488;-57
2022/12/08 12:36:57;;;;;;;26.37;16.63;;;3.30;99.90;;;;;;5053927;28;20999;-53
2022/12/08 12:39:27;;;;;;;28.57;15.07;;;3.30;99.90;;;;;;5053838;28;20448;-59
2022/12/08 12:41:57;;;;;;;28.97;18.03;;;3.40;99.90;;;;;;5054432;28;20453;-60
2022/12/08 12:44:43;;;;;;;27.00;16.83;;;3.40;99.90;;;;;;5053467;28;20202;-58
2022/12/08 12:47:34;;;;;;;31.83;17.33;;;3.40;99.90;;;;;;5052916;28;20230;-58
2022/12/08 12:50:12;;;;;;;29.87;15.60;;;3.40;99.90;;;;;;5053126;28;20240;-61
2022/12/08 12:52:48;;;;;;;26.83;16.13;;;3.40;99.90;;;;;;5054282;28;20484;-55
2022/12/08 12:55:54;;;;;;;29.70;17.43;;;3.20;99.90;;;;;;5053685;28;21123;-54
2022/12/08 12:58:49;;;;;;;27.17;16.50;;;3.20;99.90;;;;;;4972304;28;20454;-54